.
WxDataArchive / Data Records for 2015-03-28
2015-03-27 March 2015 2015-03-29

Data Records for Saturday, 28 March 2015

Time	Temp	Chill	HIndex	Humid	Dewpt	 Wind 	HiWind	WindDir	Rain 	Barom
-----	----	-----	------	-----	-----	------	------	-------	-----	-----
00:00	21.4	21.4	21.4	62	10.4	0	1	292	0.00	30.167 
00:05	21.4	21.4	21.4	62	10.4	0	1	292	0.00	30.167 
00:10	21.3	21.3	21.3	62	10.3	0	1	292	0.00	30.167 
00:15	21.3	21.3	21.3	62	10.3	0	1	292	0.00	30.170 
00:20	21.1	21.1	21.1	63	10.5	0	1	292	0.00	30.170 
00:25	21.0	21.0	21.0	63	10.4	0	1	292	0.00	30.170 
00:30	20.8	20.8	20.8	64	10.6	0	1	292	0.00	30.174 
00:35	20.8	20.8	20.8	64	10.6	0	1	292	0.00	30.174 
00:40	20.6	20.6	20.6	64	10.4	0	1	292	0.00	30.174 
00:45	20.5	20.5	20.5	65	10.6	0	1	292	0.00	30.169 
00:50	20.5	20.5	20.5	65	10.6	0	2	292	0.00	30.169 
00:55	20.5	20.5	20.5	65	10.6	0	1	292	0.00	30.169 
01:00	20.5	20.5	20.5	65	10.6	0	2	292	0.00	30.175 
01:05	20.3	20.3	20.3	65	10.4	0	1	292	0.00	30.175 
01:10	20.2	20.2	20.2	66	10.7	0	2	292	0.00	30.175 
01:15	20.2	20.2	20.2	66	10.7	0	1	292	0.00	30.176 
01:20	20.2	20.2	20.2	66	10.7	0	2	292	0.00	30.176 
01:25	20.2	20.2	20.2	66	10.7	0	1	292	0.00	30.176 
01:30	20.0	20.0	20.0	66	10.5	0	1	292	0.00	30.178 
01:35	20.0	20.0	20.0	67	10.8	0	1	292	0.00	30.178 
01:40	20.0	20.0	20.0	67	10.8	0	2	292	0.00	30.178 
01:45	19.9	19.9	19.9	67	10.7	0	2	292	0.00	30.175 
01:50	19.9	19.9	19.9	67	10.7	0	2	292	0.00	30.175 
01:55	19.9	19.9	19.9	67	10.7	0	1	292	0.00	30.175 
02:00	19.7	19.7	19.7	68	10.9	0	1	292	0.00	30.176 
02:05	19.7	19.7	19.7	68	10.9	0	2	292	0.00	30.176 
02:10	19.7	19.7	19.7	68	10.9	0	2	292	0.00	30.176 
02:15	19.7	19.7	19.7	68	10.9	0	2	292	0.00	30.178 
02:20	19.7	19.7	19.7	68	10.9	0	1	292	0.00	30.178 
02:25	19.5	19.5	19.5	68	10.7	0	2	292	0.00	30.178 
02:30	19.5	19.5	19.5	68	10.7	0	2	292	0.00	30.180 
02:35	19.4	19.4	19.4	68	10.6	0	1	292	0.00	30.180 
02:40	19.4	19.4	19.4	69	10.9	0	1	292	0.00	30.180 
02:45	19.4	19.4	19.4	69	10.9	0	2	292	0.00	30.181 
02:50	19.2	19.2	19.2	69	10.7	0	1	292	0.00	30.181 
02:55	19.2	19.2	19.2	69	10.7	0	1	292	0.00	30.181 
03:00	19.2	19.2	19.2	69	10.7	0	2	292	0.00	30.181 
03:05	19.2	19.2	19.2	69	10.7	0	1	292	0.00	30.181 
03:10	19.2	19.2	19.2	69	10.7	0	1	292	0.00	30.181 
03:15	19.2	19.2	19.2	69	10.7	0	1	292	0.00	30.180 
03:20	19.2	19.2	19.2	68	10.4	0	2	292	0.00	30.180 
03:25	19.2	19.2	19.2	68	10.4	0	2	292	0.00	30.180 
03:30	19.2	19.2	19.2	68	10.4	0	2	292	0.00	30.181 
03:35	19.2	19.2	19.2	68	10.4	0	3	292	0.00	30.181 
03:40	19.2	19.2	19.2	68	10.4	0	1	292	0.00	30.181 
03:45	19.1	19.1	19.1	68	10.3	0	1	292	0.00	30.185 
03:50	19.1	19.1	19.1	68	10.3	0	1	292	0.00	30.185 
03:55	18.9	18.9	18.9	69	10.4	0	1	292	0.00	30.185 
04:00	18.9	18.9	18.9	69	10.4	0	1	292	0.00	30.189 
04:05	18.8	18.8	18.8	69	10.3	0	1	292	0.00	30.189 
04:10	18.8	18.8	18.8	69	10.3	0	1	292	0.00	30.189 
04:15	18.6	18.6	18.6	69	10.2	0	2	292	0.00	30.192 
04:20	18.6	18.6	18.6	69	10.2	0	2	292	0.00	30.192 
04:25	18.6	18.6	18.6	69	10.2	0	1	292	0.00	30.192 
04:30	18.6	18.6	18.6	68	9.8	0	2	292	0.00	30.197 
04:35	18.6	18.6	18.6	68	9.8	0	1	292	0.00	30.197 
04:40	18.6	18.6	18.6	67	9.5	0	2	315	0.00	30.197 
04:45	18.6	18.6	18.6	67	9.5	0	2	315	0.00	30.199 
04:50	18.6	18.6	18.6	66	9.2	0	2	315	0.00	30.199 
04:55	18.6	18.6	18.6	66	9.2	0	3	0	0.00	30.199 
05:00	18.6	18.6	18.6	65	8.8	0	3	90	0.00	30.204 
05:05	18.6	18.6	18.6	65	8.8	0	4	90	0.00	30.204 
05:10	18.6	18.6	18.6	65	8.8	0	1	90	0.00	30.204 
05:15	18.4	18.4	18.4	65	8.6	0	2	90	0.00	30.206 
05:20	18.4	18.4	18.4	65	8.6	0	1	90	0.00	30.206 
05:25	18.3	18.3	18.3	66	8.9	0	1	90	0.00	30.206 
05:30	18.3	18.3	18.3	66	8.9	0	1	90	0.00	30.212 
05:35	18.1	18.1	18.1	66	8.7	0	1	90	0.00	30.212 
05:40	18.1	18.1	18.1	67	9.0	0	2	90	0.00	30.212 
05:45	18.0	18.0	18.0	67	8.9	0	3	90	0.00	30.213 
05:50	18.0	18.0	18.0	68	9.2	0	2	90	0.00	30.213 
05:55	17.8	17.8	17.8	69	9.4	0	3	90	0.00	30.213 
06:00	17.8	17.8	17.8	69	9.4	1	3	90	0.00	30.224 
06:05	17.7	17.7	17.7	70	9.6	1	4	90	0.00	30.224 
06:10	17.7	17.7	17.7	71	9.9	1	4	90	0.00	30.224 
06:15	17.5	17.5	17.5	72	10.0	0	1	90	0.00	30.230 
06:20	17.3	17.3	17.3	72	9.8	0	0	---	0.00	30.230 
06:25	17.2	17.2	17.2	72	9.8	0	0	---	0.00	30.230 
06:30	17.0	17.0	17.0	72	9.6	0	1	90	0.00	30.243 
06:35	16.9	16.9	16.9	72	9.5	0	1	90	0.00	30.243 
06:40	16.9	16.9	16.9	71	9.2	0	1	90	0.00	30.243 
06:45	16.7	16.7	16.7	69	8.3	0	1	90	0.00	30.246 
06:50	16.7	16.7	16.7	69	8.3	0	0	---	0.00	30.246 
06:55	16.5	16.5	16.5	68	7.8	0	2	90	0.00	30.246 
07:00	16.4	16.4	16.4	67	7.4	0	0	---	0.00	30.252 
07:05	16.4	16.4	16.4	67	7.4	0	0	---	0.00	30.252 
07:10	16.2	16.2	16.2	67	7.2	0	0	---	0.00	30.252 
07:15	16.1	16.1	16.1	67	7.1	0	0	---	0.00	30.263 
07:20	15.9	15.9	15.9	66	6.6	0	0	---	0.00	30.263 
07:25	15.7	15.7	15.7	67	6.7	0	0	---	0.00	30.263 
07:30	15.6	15.6	15.6	67	6.6	0	0	---	0.00	30.266 
07:35	15.4	15.4	15.4	67	6.4	0	0	---	0.00	30.266 
07:40	15.2	15.2	15.2	68	6.6	0	0	---	0.00	30.266 
07:45	15.1	15.1	15.1	68	6.5	0	0	---	0.00	30.279 
07:50	15.1	15.1	15.1	69	6.8	0	0	---	0.00	30.279 
07:55	15.1	15.1	15.1	69	6.8	0	0	---	0.00	30.279 
08:00	15.2	15.2	15.2	70	7.2	0	0	---	0.00	30.285 
08:05	15.4	15.4	15.4	71	7.7	0	0	---	0.00	30.285 
08:10	16.1	16.1	16.1	72	8.7	0	1	90	0.00	30.285 
08:15	16.5	16.5	16.5	71	8.8	0	1	90	0.00	30.291 
08:20	17.2	17.2	17.2	69	8.8	0	0	---	0.00	30.291 
08:25	17.7	17.7	17.7	67	8.6	0	1	90	0.00	30.291 
08:30	18.0	18.0	18.0	65	8.3	0	1	90	0.00	30.295 
08:35	18.6	18.6	18.6	63	8.1	0	1	90	0.00	30.295 
08:40	19.1	19.1	19.1	61	7.9	0	3	90	0.00	30.295 
08:45	19.2	19.2	19.2	59	7.3	0	2	90	0.00	30.295 
08:50	19.5	19.5	19.5	58	7.2	0	2	90	0.00	30.295 
08:55	19.9	19.9	19.9	56	6.8	0	2	90	0.00	30.295 
09:00	20.3	20.3	20.3	55	6.7	0	2	90	0.00	30.297 
09:05	20.6	20.6	20.6	54	6.6	0	3	90	0.00	30.297 
09:10	20.8	20.8	20.8	54	6.8	0	3	338	0.00	30.297 
09:15	21.0	21.0	21.0	53	6.6	0	2	90	0.00	30.311 
09:20	21.1	21.1	21.1	52	6.3	0	3	45	0.00	30.311 
09:25	21.3	21.3	21.3	52	6.4	0	6	112	0.00	30.311 
09:30	21.4	21.4	21.4	52	6.5	1	3	112	0.00	30.313 
09:35	21.6	21.6	21.6	51	6.3	0	2	112	0.00	30.313 
09:40	21.9	21.9	21.9	52	7.0	0	2	112	0.00	30.313 
09:45	22.1	22.1	22.1	51	6.8	1	4	90	0.00	30.317 
09:50	22.4	22.4	22.4	50	6.6	0	3	90	0.00	30.317 
09:55	22.7	22.7	22.7	49	6.4	0	3	90	0.00	30.317 
10:00	23.0	23.0	23.0	48	6.3	0	3	90	0.00	30.324 
10:05	23.0	23.0	23.0	46	5.3	1	3	22	0.00	30.324 
10:10	23.2	23.2	23.2	47	6.0	0	3	22	0.00	30.324 
10:15	23.9	23.9	23.9	46	6.2	1	3	22	0.00	30.326 
10:20	23.9	23.9	23.9	45	5.7	1	3	0	0.00	30.326 
10:25	23.9	23.9	23.9	43	4.7	2	5	90	0.00	30.326 
10:30	24.1	24.1	24.1	44	5.4	1	5	68	0.00	30.328 
10:35	24.5	24.5	24.5	43	5.2	1	5	68	0.00	30.328 
10:40	24.8	24.8	24.8	45	6.5	1	3	90	0.00	30.328 
10:45	25.1	25.1	25.1	43	5.8	1	5	90	0.00	30.329 
10:50	25.4	25.4	25.4	43	6.1	1	4	90	0.00	30.329 
10:55	25.4	25.4	25.4	42	5.5	2	6	90	0.00	30.329 
11:00	25.8	25.8	25.8	43	6.4	0	4	90	0.00	30.334 
11:05	26.3	26.3	26.3	41	5.8	1	5	90	0.00	30.334 
11:10	26.3	26.3	26.3	43	6.9	1	4	112	0.00	30.334 
11:15	26.4	26.4	26.4	43	7.0	1	5	292	0.00	30.335 
11:20	26.4	26.4	26.4	41	5.9	1	4	338	0.00	30.335 
11:25	26.4	26.4	26.4	40	5.4	1	3	338	0.00	30.335 
11:30	26.7	26.7	26.7	41	6.2	1	3	315	0.00	30.334 
11:35	26.9	26.9	26.9	41	6.4	1	3	68	0.00	30.334 
11:40	26.9	26.9	26.9	43	7.4	1	4	292	0.00	30.334 
11:45	27.3	27.3	27.3	43	7.8	1	5	112	0.00	30.337 
11:50	27.8	27.8	27.8	45	9.3	1	4	45	0.00	30.337 
11:55	27.8	27.8	27.8	39	6.1	1	4	90	0.00	30.337 
12:00	27.9	27.9	27.9	40	6.7	2	6	90	0.00	30.338 
12:05	27.8	27.8	27.8	41	7.2	3	6	90	0.00	30.338 
12:10	27.8	27.8	27.8	43	8.2	1	3	90	0.00	30.338 
12:15	28.1	28.1	28.1	40	6.9	1	4	90	0.00	30.338 
12:20	28.5	28.5	28.5	41	7.8	1	6	45	0.00	30.338 
12:25	28.2	28.2	28.2	39	6.5	1	4	270	0.00	30.338 
12:30	28.4	28.4	28.4	40	7.2	1	3	270	0.00	30.339 
12:35	28.7	28.7	28.7	39	6.9	1	7	270	0.00	30.339 
12:40	29.0	29.0	29.0	43	9.3	1	7	68	0.00	30.339 
12:45	29.4	29.4	29.4	43	9.7	1	5	45	0.00	30.336 
12:50	29.5	29.5	29.5	42	9.3	3	6	112	0.00	30.336 
12:55	29.4	29.4	29.4	43	9.7	1	3	22	0.00	30.336 
13:00	29.5	29.5	29.5	41	8.7	2	5	90	0.00	30.335 
13:05	29.8	29.8	29.8	42	9.5	1	4	90	0.00	30.335 
13:10	30.0	30.0	30.0	39	8.1	1	2	90	0.00	30.335 
13:15	29.7	29.7	29.7	37	6.7	1	4	338	0.00	30.337 
13:20	30.1	30.1	30.1	40	8.7	1	4	90	0.00	30.337 
13:25	30.4	30.4	30.4	37	7.3	1	4	68	0.00	30.337 
13:30	30.3	30.3	30.3	39	8.3	0	2	90	0.00	30.337 
13:35	30.4	30.4	30.4	39	8.4	1	3	90	0.00	30.337 
13:40	31.0	31.0	31.0	42	10.6	1	3	22	0.00	30.337 
13:45	31.5	31.5	31.5	36	7.7	2	5	90	0.00	30.332 
13:50	31.5	31.5	31.5	38	8.9	1	4	0	0.00	30.332 
13:55	31.3	31.3	31.3	37	8.1	1	3	45	0.00	30.332 
14:00	31.3	31.3	31.3	38	8.7	1	3	45	0.00	30.331 
14:05	31.2	31.2	31.2	38	8.6	1	3	45	0.00	30.331 
14:10	31.3	31.3	31.3	35	6.9	1	3	22	0.00	30.331 
14:15	31.6	31.6	31.6	37	8.4	0	2	22	0.00	30.323 
14:20	32.1	32.1	32.1	37	8.8	1	6	22	0.00	30.323 
14:25	32.4	32.4	32.4	38	9.7	1	4	90	0.00	30.323 
14:30	32.4	32.4	32.4	37	9.1	1	4	292	0.00	30.322 
14:35	32.7	32.7	32.7	38	9.9	2	5	90	0.00	30.322 
14:40	32.8	32.8	32.8	36	8.8	1	6	90	0.00	30.322 
14:45	32.5	32.5	32.5	39	10.3	2	5	90	0.00	30.319 
14:50	32.7	32.7	32.7	40	11.1	1	5	90	0.00	30.319 
14:55	32.4	32.4	32.4	36	8.5	3	6	112	0.00	30.319 
15:00	32.5	32.5	32.5	37	9.2	1	6	90	0.00	30.320 
15:05	32.8	32.8	32.8	38	10.0	0	2	90	0.00	30.320 
15:10	33.1	33.1	33.1	36	9.1	1	4	90	0.00	30.320 
15:15	33.8	33.8	33.8	39	11.5	0	2	90	0.00	30.312 
15:20	34.4	34.4	34.4	38	11.5	0	2	90	0.00	30.312 
15:25	35.0	35.0	35.0	34	9.5	1	2	90	0.00	30.312 
15:30	34.7	34.7	34.7	33	8.6	1	4	22	0.00	30.302 
15:35	34.6	34.6	34.6	34	9.1	1	3	338	0.00	30.302 
15:40	34.7	34.7	34.7	35	9.9	1	3	315	0.00	30.302 
15:45	34.6	34.6	34.6	34	9.1	1	5	338	0.00	30.302 
15:50	34.4	34.4	34.4	33	8.3	0	3	338	0.00	30.302 
15:55	34.3	34.3	34.3	33	8.2	0	2	45	0.00	30.302 
16:00	34.6	34.6	34.6	35	9.8	0	3	45	0.00	30.299 
16:05	34.9	34.9	34.9	31	7.4	1	4	270	0.00	30.299 
16:10	34.7	34.7	34.7	35	9.9	2	6	90	0.00	30.299 
16:15	34.0	34.0	34.0	31	6.6	2	5	112	0.00	30.292 
16:20	33.7	33.7	33.7	37	10.2	1	2	112	0.00	30.292 
16:25	34.4	34.4	34.4	34	9.0	0	2	112	0.00	30.292 
16:30	35.0	35.0	35.0	33	8.8	0	2	112	0.00	30.296 
16:35	35.2	35.2	35.2	32	8.3	0	3	112	0.00	30.296 
16:40	34.9	34.9	34.9	31	7.4	1	4	0	0.00	30.296 
16:45	34.6	34.6	34.6	31	7.1	1	4	0	0.00	30.301 
16:50	34.9	34.9	34.9	34	9.4	1	3	0	0.00	30.301 
16:55	35.3	35.3	35.3	30	7.0	2	5	270	0.00	30.301 
17:00	34.9	34.9	34.9	31	7.4	1	4	270	0.00	30.300 
17:05	34.7	34.7	34.7	29	5.7	1	4	270	0.00	30.300 
17:10	34.9	34.9	34.9	34	9.4	1	4	90	0.00	30.300 
17:15	35.2	35.2	35.2	33	9.0	0	2	90	0.00	30.297 
17:20	35.3	35.3	35.3	30	7.0	1	3	90	0.00	30.297 
17:25	35.2	35.2	35.2	29	6.2	1	3	338	0.00	30.297 
17:30	35.0	35.0	35.0	30	6.7	1	3	112	0.00	30.300 
17:35	35.3	35.3	35.3	30	7.0	0	3	338	0.00	30.300 
17:40	35.5	35.5	35.5	30	7.2	1	5	315	0.00	30.300 
17:45	35.5	35.5	35.5	28	5.7	1	4	315	0.00	30.300 
17:50	35.8	35.8	35.8	29	6.7	1	2	315	0.00	30.300 
17:55	35.9	35.9	35.9	27	5.2	0	3	315	0.00	30.300 
18:00	35.9	35.9	35.9	29	6.8	1	4	338	0.00	30.302 
18:05	35.8	35.8	35.8	27	5.1	1	3	338	0.00	30.302 
18:10	35.6	35.6	35.6	29	6.5	0	3	338	0.00	30.302 
18:15	35.5	35.5	35.5	28	5.7	0	3	22	0.00	30.303 
18:20	35.6	35.6	35.6	29	6.5	0	1	22	0.00	30.303 
18:25	35.6	35.6	35.6	29	6.5	0	2	22	0.00	30.303 
18:30	35.6	35.6	35.6	29	6.5	0	1	22	0.00	30.299 
18:35	35.5	35.5	35.5	28	5.7	0	2	45	0.00	30.299 
18:40	35.0	35.0	35.0	28	5.2	1	4	45	0.00	30.299 
18:45	34.9	34.9	34.9	28	5.1	1	3	90	0.00	30.303 
18:50	34.9	34.9	34.9	30	6.6	0	2	90	0.00	30.303 
18:55	35.2	35.2	35.2	30	6.9	0	3	315	0.00	30.303 
19:00	35.3	35.3	35.3	28	5.5	1	3	315	0.00	30.310 
19:05	35.3	35.3	35.3	28	5.5	0	2	315	0.00	30.310 
19:10	35.0	35.0	35.0	28	5.2	0	2	315	0.00	30.310 
19:15	34.9	34.9	34.9	27	4.4	1	3	315	0.00	30.317 
19:20	34.9	34.9	34.9	27	4.4	0	2	315	0.00	30.317 
19:25	34.7	34.7	34.7	28	5.0	0	1	315	0.00	30.317 
19:30	34.7	34.7	34.7	27	4.2	0	1	315	0.00	30.314 
19:35	34.6	34.6	34.6	29	5.6	0	0	---	0.00	30.314 
19:40	34.4	34.4	34.4	29	5.5	0	1	315	0.00	30.314 
19:45	34.1	34.1	34.1	29	5.2	0	1	315	0.00	30.319 
19:50	34.0	34.0	34.0	29	5.1	0	1	315	0.00	30.319 
19:55	33.8	33.8	33.8	29	4.9	0	0	---	0.00	30.319 
20:00	33.5	33.5	33.5	30	5.4	0	0	---	0.00	30.317 
20:05	33.2	33.2	33.2	30	5.2	0	0	---	0.00	30.317 
20:10	32.8	32.8	32.8	31	5.5	0	0	---	0.00	30.317 
20:15	32.5	32.5	32.5	31	5.3	0	0	---	0.00	30.312 
20:20	32.1	32.1	32.1	32	5.6	0	0	---	0.00	30.312 
20:25	31.8	31.8	31.8	33	6.0	0	0	---	0.00	30.312 
20:30	31.3	31.3	31.3	35	6.9	0	0	---	0.00	30.319 
20:35	30.7	30.7	30.7	34	5.7	0	0	---	0.00	30.319 
20:40	30.4	30.4	30.4	36	6.7	0	0	---	0.00	30.319 
20:45	30.1	30.1	30.1	36	6.4	0	0	---	0.00	30.321 
20:50	29.8	29.8	29.8	37	6.7	0	0	---	0.00	30.321 
20:55	29.5	29.5	29.5	37	6.5	0	0	---	0.00	30.321 
21:00	29.3	29.3	29.3	38	6.9	0	0	---	0.00	30.329 
21:05	29.1	29.1	29.1	39	7.3	0	0	---	0.00	30.329 
21:10	29.0	29.0	29.0	41	8.3	0	0	---	0.00	30.329 
21:15	28.8	28.8	28.8	41	8.1	0	0	---	0.00	30.328 
21:20	28.5	28.5	28.5	42	8.4	0	0	---	0.00	30.328 
21:25	28.4	28.4	28.4	42	8.3	0	0	---	0.00	30.328 
21:30	28.1	28.1	28.1	43	8.5	0	0	---	0.00	30.332 
21:35	27.8	27.8	27.8	43	8.2	0	0	---	0.00	30.332 
21:40	27.6	27.6	27.6	43	8.1	0	0	---	0.00	30.332 
21:45	27.5	27.5	27.5	44	8.5	0	0	---	0.00	30.333 
21:50	27.3	27.3	27.3	44	8.3	0	0	---	0.00	30.333 
21:55	27.0	27.0	27.0	45	8.5	0	0	---	0.00	30.333 
22:00	26.9	26.9	26.9	46	8.9	0	0	---	0.00	30.337 
22:05	26.6	26.6	26.6	47	9.1	0	0	---	0.00	30.337 
22:10	26.4	26.4	26.4	49	9.9	0	0	---	0.00	30.337 
22:15	26.3	26.3	26.3	49	9.8	0	0	---	0.00	30.334 
22:20	26.1	26.1	26.1	50	10.0	0	0	---	0.00	30.334 
22:25	26.0	26.0	26.0	50	9.9	0	0	---	0.00	30.334 
22:30	25.8	25.8	25.8	51	10.2	0	0	---	0.00	30.335 
22:35	25.6	25.6	25.6	52	10.4	0	0	---	0.00	30.335 
22:40	25.3	25.3	25.3	52	10.2	0	0	---	0.00	30.335 
22:45	25.1	25.1	25.1	54	10.8	0	0	---	0.00	30.340 
22:50	24.8	24.8	24.8	54	10.5	0	0	---	0.00	30.340 
22:55	24.7	24.7	24.7	55	10.9	0	0	---	0.00	30.340 
23:00	24.7	24.7	24.7	55	10.9	0	0	---	0.00	30.343 
23:05	24.5	24.5	24.5	56	11.1	0	0	---	0.00	30.343 
23:10	24.4	24.4	24.4	57	11.4	0	0	---	0.00	30.343 
23:15	24.4	24.4	24.4	57	11.4	0	0	---	0.00	30.341 
23:20	24.2	24.2	24.2	58	11.6	0	0	---	0.00	30.341 
23:25	23.9	23.9	23.9	58	11.3	0	0	---	0.00	30.341 
23:30	23.8	23.8	23.8	58	11.2	0	0	---	0.00	30.348 
23:35	23.6	23.6	23.6	59	11.4	0	0	---	0.00	30.348 
23:40	23.3	23.3	23.3	60	11.5	0	0	---	0.00	30.348 
23:45	23.2	23.2	23.2	60	11.4	0	0	---	0.00	30.350 
23:50	23.0	23.0	23.0	60	11.2	0	0	---	0.00	30.350 
23:55	22.9	22.9	22.9	61	11.5	0	0	---	0.00	30.350 

CoCoRaHS
IN-AL-39
A2 Web Hosting
Creative Commons License
GoDaddy
search engine by freefind advanced

loaded 2018-11-20 06:47:27 • last modified 2010-11-18 10:43:29
Privacy PolicyDisclaimer
• wx.awcolley.com is powered by PmWiki v.2002016 •
• all content (unless otherwise noted) © 2018 A W Colley